createdAt,value
2018-04-22T00:02:20.825Z,101327
2018-04-22T00:04:49.038Z,101324
2018-04-22T00:07:17.273Z,101320
2018-04-22T00:09:45.396Z,101317
2018-04-22T00:12:13.520Z,101317
2018-04-22T00:14:41.694Z,101314
2018-04-22T00:17:09.885Z,101317
2018-04-22T00:19:38.037Z,101318
2018-04-22T00:22:06.389Z,101309
2018-04-22T00:24:35.305Z,101308
2018-04-22T00:27:03.467Z,101306
2018-04-22T00:29:31.644Z,101313
2018-04-22T00:31:59.780Z,101311
2018-04-22T00:34:27.928Z,101307
2018-04-22T00:36:56.090Z,101306
2018-04-22T00:39:24.251Z,101298
2018-04-22T00:41:52.934Z,101301
2018-04-22T00:44:21.170Z,101304
2018-04-22T00:46:50.103Z,101305
2018-04-22T00:49:18.228Z,101303
2018-04-22T00:51:47.200Z,101299
2018-04-22T00:54:20.956Z,101302
2018-04-22T00:56:49.254Z,101296
2018-04-22T00:59:17.442Z,101303
2018-04-22T01:01:45.650Z,101303
2018-04-22T01:04:14.557Z,101303
2018-04-22T01:06:42.721Z,101300
2018-04-22T01:09:11.762Z,101306
2018-04-22T01:11:39.945Z,101299
2018-04-22T01:14:08.107Z,101294
2018-04-22T01:16:36.375Z,101297
2018-04-22T01:19:04.501Z,101301
2018-04-22T01:21:33.426Z,101304
2018-04-22T01:24:01.706Z,101304
2018-04-22T01:26:29.848Z,101305
2018-04-22T01:28:58.777Z,101307
2018-04-22T01:31:26.947Z,101303
2018-04-22T01:33:55.226Z,101300
2018-04-22T01:36:23.414Z,101296
2018-04-22T01:38:51.586Z,101302
2018-04-22T01:41:19.761Z,101299
2018-04-22T01:43:47.929Z,101297
2018-04-22T01:46:16.110Z,101295
2018-04-22T01:48:44.244Z,101300
2018-04-22T01:51:12.535Z,101289
2018-04-22T01:53:40.680Z,101301
2018-04-22T01:56:09.623Z,101288
2018-04-22T01:58:37.820Z,101295
2018-04-22T02:01:06.103Z,101176
2018-04-22T02:03:35.157Z,101288
2018-04-22T02:06:03.301Z,101295
2018-04-22T02:08:31.459Z,101277
2018-04-22T02:10:59.648Z,101288
2018-04-22T02:13:27.817Z,101294
2018-04-22T02:15:55.978Z,101281
2018-04-22T02:18:24.357Z,101279
2018-04-22T02:20:52.576Z,101272
2018-04-22T02:23:20.709Z,101274
2018-04-22T02:25:48.850Z,101268
2018-04-22T02:28:16.996Z,101269
2018-04-22T02:30:45.222Z,101267
2018-04-22T02:33:13.515Z,101263
2018-04-22T02:35:41.695Z,101258
2018-04-22T02:38:09.841Z,101270
2018-04-22T02:40:38.155Z,101258
2018-04-22T02:43:06.320Z,101253
2018-04-22T02:45:34.469Z,101256
2018-04-22T02:48:02.609Z,101257
2018-04-22T02:50:30.768Z,101262
2018-04-22T02:52:59.002Z,101255
2018-04-22T02:55:27.125Z,101253
2018-04-22T02:57:55.290Z,101245
2018-04-22T03:00:24.312Z,101248
2018-04-22T03:02:52.441Z,101239
2018-04-22T03:05:20.585Z,101250
2018-04-22T03:07:48.748Z,101250
2018-04-22T03:10:16.926Z,101239
2018-04-22T03:12:45.297Z,101233
2018-04-22T03:15:13.490Z,101230
2018-04-22T03:17:41.651Z,101229
2018-04-22T03:20:09.814Z,101229
2018-04-22T03:22:37.973Z,101227
2018-04-22T03:25:06.211Z,101231
2018-04-22T03:27:34.440Z,101232
2018-04-22T03:30:02.644Z,101234
2018-04-22T03:32:30.905Z,101226
2018-04-22T03:34:59.098Z,101222
2018-04-22T03:37:27.235Z,101229
2018-04-22T03:39:55.714Z,101224
2018-04-22T03:42:23.980Z,101212
2018-04-22T03:44:52.163Z,101218
2018-04-22T03:47:20.390Z,101216
2018-04-22T03:49:48.660Z,101223
2018-04-22T03:52:16.820Z,101220
2018-04-22T03:54:45.061Z,101222
2018-04-22T03:57:13.495Z,101224
2018-04-22T03:59:42.413Z,101222
2018-04-22T04:02:10.611Z,101230
2018-04-22T04:04:38.780Z,101216
2018-04-22T04:07:07.417Z,101220
2018-04-22T04:09:36.336Z,101227
2018-04-22T04:12:04.589Z,101225
2018-04-22T04:14:33.601Z,101219
2018-04-22T04:17:01.785Z,101216
2018-04-22T04:19:47.895Z,101215
2018-04-22T04:22:34.245Z,101227
2018-04-22T04:28:14.128Z,101223
2018-04-22T04:30:42.306Z,101220
2018-04-22T04:33:10.441Z,101223
2018-04-22T04:35:38.618Z,101223
2018-04-22T04:38:06.785Z,101223
2018-04-22T04:40:35.030Z,101222
2018-04-22T04:43:03.177Z,101225
2018-04-22T04:45:31.364Z,101221
2018-04-22T04:47:59.525Z,101215
2018-04-22T04:50:27.714Z,101219
2018-04-22T04:52:55.840Z,101213
2018-04-22T04:55:24.785Z,101219
2018-04-22T04:57:53.055Z,101220
2018-04-22T05:00:21.222Z,101218
2018-04-22T05:02:50.127Z,101213
2018-04-22T05:05:18.403Z,101218
2018-04-22T05:21:38.988Z,101207
2018-04-22T05:24:07.970Z,101211
2018-04-22T05:26:36.889Z,101206
2018-04-22T05:29:05.046Z,101210
2018-04-22T05:31:33.994Z,101199
2018-04-22T05:34:02.995Z,101200
2018-04-22T05:36:31.173Z,101200
2018-04-22T05:38:59.300Z,101199
2018-04-22T05:41:27.534Z,101199
2018-04-22T05:43:56.513Z,101192
2018-04-22T05:46:24.689Z,101201
2018-04-22T05:48:52.815Z,101198
2018-04-22T05:51:20.968Z,101197
2018-04-22T05:53:49.090Z,101201
2018-04-22T05:56:17.249Z,101198
2018-04-22T05:58:45.408Z,101193
2018-04-22T06:01:13.538Z,101192
2018-04-22T06:03:42.450Z,101192
2018-04-22T06:06:10.597Z,101192
2018-04-22T06:08:39.588Z,101190
2018-04-22T06:11:07.676Z,101188
2018-04-22T06:13:35.851Z,101194
2018-04-22T06:16:04.028Z,101192
2018-04-22T06:18:32.176Z,101187
2018-04-22T06:21:00.316Z,101187
2018-04-22T06:23:28.436Z,101175
2018-04-22T06:25:57.374Z,101177
2018-04-22T06:28:25.538Z,101179
2018-04-22T06:30:53.688Z,101173
2018-04-22T06:33:21.834Z,101170
2018-04-22T06:35:50.749Z,101168
2018-04-22T06:38:18.892Z,101170
2018-04-22T06:40:47.005Z,101167
2018-04-22T06:43:15.152Z,101175
2018-04-22T06:45:44.066Z,101161
2018-04-22T06:48:12.217Z,101166
2018-04-22T06:50:40.390Z,101164
2018-04-22T06:53:08.567Z,101162
2018-04-22T06:55:36.742Z,101158
2018-04-22T06:58:04.866Z,101167
2018-04-22T07:00:33.091Z,101162
2018-04-22T07:03:01.263Z,101154
2018-04-22T07:05:29.719Z,101151
2018-04-22T07:07:57.845Z,101155
2018-04-22T07:10:25.989Z,101154
2018-04-22T07:12:54.113Z,101151
2018-04-22T07:15:22.291Z,101161
2018-04-22T07:17:50.429Z,101147
2018-04-22T07:20:18.540Z,101142
2018-04-22T07:22:46.689Z,101145
2018-04-22T07:25:14.808Z,101144
2018-04-22T07:27:43.745Z,101154
2018-04-22T07:30:11.921Z,101160
2018-04-22T07:32:40.095Z,101156
2018-04-22T07:35:08.220Z,101155
2018-04-22T07:37:36.364Z,101142
2018-04-22T07:40:05.289Z,101155
2018-04-22T07:42:33.440Z,101148
2018-04-22T07:45:02.346Z,101140
2018-04-22T07:47:31.229Z,101147
2018-04-22T07:50:00.132Z,101144
2018-04-22T07:52:28.253Z,101146
2018-04-22T07:54:56.393Z,101149
2018-04-22T07:57:24.513Z,101154
2018-04-22T07:59:52.681Z,101147
2018-04-22T08:02:20.807Z,101154
2018-04-22T08:04:48.994Z,101152
2018-04-22T08:07:17.117Z,101153
2018-04-22T08:09:46.036Z,101156
2018-04-22T08:12:14.161Z,101150
2018-04-22T08:14:42.313Z,101151
2018-04-22T08:17:10.433Z,101144
2018-04-22T08:19:39.317Z,101144
2018-04-22T08:22:08.259Z,101143
2018-04-22T08:24:36.429Z,101145
2018-04-22T08:27:04.595Z,101145
2018-04-22T08:29:32.776Z,101141
2018-04-22T08:32:00.897Z,101145
2018-04-22T08:34:29.841Z,101135
2018-04-22T08:36:58.056Z,101138
2018-04-22T08:39:26.965Z,101131
2018-04-22T08:41:55.167Z,101138
2018-04-22T08:44:23.376Z,101132
2018-04-22T08:46:51.571Z,101131
2018-04-22T08:49:20.597Z,101132
2018-04-22T08:51:48.879Z,101132
2018-04-22T08:54:17.179Z,101134
2018-04-22T08:56:45.417Z,101125
2018-04-22T08:59:13.694Z,101118
2018-04-22T09:01:42.734Z,101113
2018-04-22T09:04:11.100Z,101120
2018-04-22T09:06:39.559Z,101116
2018-04-22T09:09:08.677Z,101107
2018-04-22T09:11:37.339Z,101111
2018-04-22T09:14:06.013Z,101106
2018-04-22T09:16:34.714Z,101094
2018-04-22T09:19:03.315Z,101104
2018-04-22T09:21:32.098Z,101095
2018-04-22T09:24:01.919Z,101084
2018-04-22T09:26:31.310Z,101072
2018-04-22T09:29:00.153Z,101074
2018-04-22T09:31:28.701Z,101066
2018-04-22T09:33:58.796Z,101065
2018-04-22T09:36:28.795Z,101065
2018-04-22T09:38:57.755Z,101066
2018-04-22T09:41:26.694Z,101057
2018-04-22T09:43:55.717Z,101049
2018-04-22T09:46:24.358Z,101054
2018-04-22T09:48:53.757Z,101046
2018-04-22T09:51:22.798Z,101045
2018-04-22T09:53:51.697Z,101049
2018-04-22T09:56:21.097Z,101047
2018-04-22T09:58:50.976Z,101046
2018-04-22T10:01:20.137Z,101048
2018-04-22T10:03:49.560Z,101034
2018-04-22T10:06:18.276Z,101031
2018-04-22T10:08:47.296Z,101033
2018-04-22T10:11:17.411Z,101025
2018-04-22T10:13:46.876Z,101023
2018-04-22T10:16:16.056Z,101021
2018-04-22T10:18:45.378Z,101031
2018-04-22T10:21:15.355Z,101023
2018-04-22T10:23:46.521Z,101026
2018-04-22T10:26:17.476Z,101022
2018-04-22T10:28:47.496Z,101016
2018-04-22T10:31:19.217Z,101006
2018-04-22T10:33:51.873Z,101016
2018-04-22T10:39:21.458Z,100998
2018-04-22T10:41:49.634Z,101002
2018-04-22T10:44:17.799Z,101005
2018-04-22T10:46:46.027Z,101005
2018-04-22T10:49:14.887Z,100993
2018-04-22T10:51:43.068Z,100989
2018-04-22T10:54:12.011Z,100982
2018-04-22T10:56:40.128Z,100986
2018-04-22T10:59:09.090Z,100991
2018-04-22T11:01:37.245Z,100987
2018-04-22T11:04:05.394Z,100993
2018-04-22T11:06:33.574Z,100989
2018-04-22T11:09:01.722Z,100993
2018-04-22T11:11:29.874Z,100989
2018-04-22T11:13:58.811Z,100985
2018-04-22T11:16:26.944Z,100974
2018-04-22T11:18:55.863Z,100976
2018-04-22T11:21:24.003Z,100975
2018-04-22T11:23:52.167Z,100978
2018-04-22T11:26:20.313Z,100962
2018-04-22T11:28:48.467Z,100951
2018-04-22T11:31:16.665Z,100964
2018-04-22T11:33:44.817Z,100954
2018-04-22T11:36:12.932Z,100955
2018-04-22T11:38:41.840Z,100953
2018-04-22T11:41:10.770Z,100954
2018-04-22T11:43:38.888Z,100953
2018-04-22T11:46:07.058Z,100951
2018-04-22T11:48:35.973Z,100953
2018-04-22T11:51:04.145Z,100952
2018-04-22T11:53:32.302Z,100942
2018-04-22T11:56:01.189Z,100943
2018-04-22T11:58:29.354Z,100946
2018-04-22T12:00:57.474Z,100947
2018-04-22T12:03:25.671Z,100949
2018-04-22T12:05:53.788Z,100943
2018-04-22T12:08:22.665Z,100940
2018-04-22T12:10:50.830Z,100941
2018-04-22T12:13:18.981Z,100937
2018-04-22T12:15:47.149Z,100934
2018-04-22T12:18:15.262Z,100936
2018-04-22T12:20:44.187Z,100937
2018-04-22T12:23:12.368Z,100930
2018-04-22T12:25:40.570Z,100937
2018-04-22T12:28:08.724Z,100942
2018-04-22T12:30:37.621Z,100938
2018-04-22T12:33:05.753Z,100925
2018-04-22T12:35:33.892Z,100928
2018-04-22T12:38:02.062Z,100934
2018-04-22T12:40:30.191Z,100924
2018-04-22T12:42:58.345Z,100929
2018-04-22T12:45:26.491Z,100921
2018-04-22T12:47:55.458Z,100919
2018-04-22T12:50:23.568Z,100920
2018-04-22T12:52:51.725Z,100919
2018-04-22T12:55:20.698Z,100921
2018-04-22T12:57:48.816Z,100912
2018-04-22T13:00:16.932Z,100911
2018-04-22T13:02:45.069Z,100910
2018-04-22T13:05:13.214Z,100903
2018-04-22T13:07:42.121Z,100908
2018-04-22T13:10:10.323Z,100899
2018-04-22T13:12:38.497Z,100894
2018-04-22T13:15:06.646Z,100899
2018-04-22T13:17:34.794Z,100891
2018-04-22T13:20:03.689Z,100880
2018-04-22T13:22:32.580Z,100877
2018-04-22T13:25:01.492Z,100881
2018-04-22T13:27:29.648Z,100878
2018-04-22T13:29:57.753Z,100873
2018-04-22T13:32:25.893Z,100867
2018-04-22T13:34:54.071Z,100867
2018-04-22T13:37:22.209Z,100859
2018-04-22T13:39:50.341Z,100854
2018-04-22T13:42:18.484Z,100850
2018-04-22T13:44:46.603Z,100857
2018-04-22T13:47:14.745Z,100855
2018-04-22T13:49:42.887Z,100835
2018-04-22T13:52:11.832Z,100844
2018-04-22T13:54:39.981Z,100833
2018-04-22T13:57:08.100Z,100830
2018-04-22T13:59:36.268Z,100827
2018-04-22T14:02:04.389Z,100828
2018-04-22T14:04:32.551Z,100824
2018-04-22T14:07:00.698Z,100821
2018-04-22T14:09:30.564Z,100819
2018-04-22T14:11:58.722Z,100799
2018-04-22T14:14:26.876Z,100807
2018-04-22T14:16:55.095Z,100803
2018-04-22T14:19:23.241Z,100801
2018-04-22T14:21:51.417Z,100795
2018-04-22T14:24:19.620Z,100799
2018-04-22T14:26:47.793Z,100797
2018-04-22T14:29:15.921Z,100797
2018-04-22T14:31:44.102Z,100793
2018-04-22T14:34:13.101Z,100795
2018-04-22T14:36:41.218Z,100781
2018-04-22T14:39:09.420Z,100779
2018-04-22T14:41:38.305Z,100779
2018-04-22T14:44:25.336Z,100772
2018-04-22T14:46:53.477Z,100782
2018-04-22T14:49:23.447Z,100776
2018-04-22T14:51:51.609Z,100768
2018-04-22T14:54:19.725Z,100763
2018-04-22T14:56:47.875Z,100764
2018-04-22T14:59:16.011Z,100769
2018-04-22T15:01:44.193Z,100767
2018-04-22T15:04:12.333Z,100770
2018-04-22T15:06:41.212Z,100765
2018-04-22T15:09:09.336Z,100774
2018-04-22T15:11:37.493Z,100763
2018-04-22T15:14:05.617Z,100761
2018-04-22T15:16:33.764Z,100765
2018-04-22T15:19:01.918Z,100760
2018-04-22T15:21:30.040Z,100762
2018-04-22T15:23:58.169Z,100746
2018-04-22T15:26:26.341Z,100753
2018-04-22T15:28:54.484Z,100747
2018-04-22T15:31:23.411Z,100745
2018-04-22T15:33:51.573Z,100741
2018-04-22T15:36:19.735Z,100740
2018-04-22T15:38:47.926Z,100730
2018-04-22T15:41:16.070Z,100728
2018-04-22T15:43:44.226Z,100730
2018-04-22T15:46:13.181Z,100718
2018-04-22T15:48:41.320Z,100714
2018-04-22T15:51:09.441Z,100712
2018-04-22T15:56:34.842Z,100672
2018-04-22T15:59:02.992Z,100699
2018-04-22T16:01:31.171Z,100695
2018-04-22T17:06:02.086Z,100656
2018-04-22T17:26:13.469Z,100634
2018-04-22T18:21:53.787Z,100627
2018-04-22T18:24:21.983Z,100627
2018-04-22T18:44:34.916Z,100622
2018-04-22T19:07:44.742Z,100609
2018-04-22T19:10:12.883Z,100612
2018-04-22T19:12:41.042Z,100612
2018-04-22T19:15:09.233Z,100615
2018-04-22T19:38:41.782Z,100598
2018-04-22T20:01:50.839Z,100581
2018-04-22T20:04:18.966Z,100583
2018-04-22T20:06:47.119Z,100590
2018-04-22T20:09:15.481Z,100577
2018-04-22T20:11:43.655Z,100572
2018-04-22T20:14:11.801Z,100578
2018-04-22T20:16:39.955Z,100573
2018-04-22T20:19:08.110Z,100575
2018-04-22T20:21:37.000Z,100578
2018-04-22T20:24:05.972Z,100577
2018-04-22T20:26:35.148Z,100580
2018-04-22T20:29:03.310Z,100587
2018-04-22T20:31:31.483Z,100586
2018-04-22T20:33:59.653Z,100583
2018-04-22T20:36:27.804Z,100568
2018-04-22T20:38:55.945Z,100576
2018-04-22T20:41:24.109Z,100574
2018-04-22T20:43:52.301Z,100569
2018-04-22T20:46:21.206Z,100576
2018-04-22T20:48:49.372Z,100581
2018-04-22T20:51:18.322Z,100575
2018-04-22T20:53:46.481Z,100574
2018-04-22T20:56:14.816Z,100572
2018-04-22T20:58:43.922Z,100571
2018-04-22T21:01:12.061Z,100572
2018-04-22T21:03:40.209Z,100574
2018-04-22T21:06:08.362Z,100577
2018-04-22T21:08:36.504Z,100571
2018-04-22T21:11:04.641Z,100578
2018-04-22T21:13:32.797Z,100578
2018-04-22T21:16:00.957Z,100570
2018-04-22T21:18:29.079Z,100570
2018-04-22T21:20:57.995Z,100571
2018-04-22T21:23:26.129Z,100622
2018-04-22T21:25:54.241Z,100733
2018-04-22T21:28:22.449Z,100711
2018-04-22T21:30:50.573Z,100663
2018-04-22T21:33:18.729Z,100671
2018-04-22T21:35:47.653Z,100677
2018-04-22T21:38:15.846Z,100679
2018-04-22T21:40:43.977Z,100669
2018-04-22T21:43:12.889Z,100655
2018-04-22T21:45:41.062Z,100662
2018-04-22T21:48:09.226Z,100662
2018-04-22T21:50:37.382Z,100644
2018-04-22T21:53:06.276Z,100649
2018-04-22T21:55:35.191Z,100646
2018-04-22T21:58:03.364Z,100635
2018-04-22T22:00:31.604Z,100633
2018-04-22T22:03:00.574Z,100637
2018-04-22T22:05:28.701Z,100635
2018-04-22T22:07:56.854Z,100637
2018-04-22T22:10:24.993Z,100635
2018-04-22T22:12:53.120Z,100636
2018-04-22T22:15:21.244Z,100636
2018-04-22T22:17:50.186Z,100636
2018-04-22T22:20:18.312Z,100634
2018-04-22T22:22:47.263Z,100625
2018-04-22T22:25:15.404Z,100625
2018-04-22T22:27:43.550Z,100622
2018-04-22T22:30:12.467Z,100616
2018-04-22T22:32:40.613Z,100607
2018-04-22T22:35:09.496Z,100598
2018-04-22T22:37:38.397Z,100593
2018-04-22T22:40:07.331Z,100576
2018-04-22T22:42:35.491Z,100574
2018-04-22T22:45:03.608Z,100566
2018-04-22T22:47:31.745Z,100565
2018-04-22T22:49:59.898Z,100553
2018-04-22T22:52:28.187Z,100545
2018-04-22T22:54:56.337Z,100535
2018-04-22T22:57:24.485Z,100531
2018-04-22T22:59:52.636Z,100547
2018-04-22T23:02:20.815Z,100550
2018-04-22T23:04:48.936Z,100540
2018-04-22T23:07:17.049Z,100543
2018-04-22T23:09:45.189Z,100533
2018-04-22T23:12:13.345Z,100539
2018-04-22T23:14:41.489Z,100533
2018-04-22T23:17:09.615Z,100533
2018-04-22T23:19:37.733Z,100528
2018-04-22T23:22:05.924Z,100523
2018-04-22T23:24:34.806Z,100518
2018-04-22T23:27:03.730Z,100515
2018-04-22T23:29:31.889Z,100517
2018-04-22T23:32:00.038Z,100518
2018-04-22T23:34:28.926Z,100521
2018-04-22T23:36:57.874Z,100523
2018-04-22T23:39:26.005Z,100528
2018-04-22T23:41:54.889Z,100530
2018-04-22T23:44:23.826Z,100526
2018-04-22T23:46:51.953Z,100531
2018-04-22T23:49:20.879Z,100523
2018-04-22T23:51:49.046Z,100517
2018-04-22T23:54:17.218Z,100510
2018-04-22T23:56:45.345Z,100507
2018-04-22T23:59:13.460Z,100505
